createdAt,value
2023-04-26T00:00:00.235Z,4.30
2023-04-26T00:02:29.585Z,4.60
2023-04-26T00:05:02.510Z,3.70
2023-04-26T00:07:31.474Z,3.80
2023-04-26T00:09:59.882Z,4.10
2023-04-26T00:12:28.321Z,4.47
2023-04-26T00:14:58.115Z,3.90
2023-04-26T00:17:26.467Z,4.30
2023-04-26T00:19:54.870Z,4.57
2023-04-26T00:22:23.366Z,4.37
2023-04-26T00:24:51.841Z,4.17
2023-04-26T00:27:20.256Z,4.50
2023-04-26T00:29:49.285Z,4.03
2023-04-26T00:32:19.125Z,4.17
2023-04-26T00:34:47.456Z,4.10
2023-04-26T00:37:15.954Z,4.50
2023-04-26T00:39:44.397Z,4.63
2023-04-26T00:42:13.163Z,4.60
2023-04-26T00:44:41.509Z,4.87
2023-04-26T00:47:10.240Z,4.77
2023-04-26T00:49:40.507Z,4.30
2023-04-26T00:52:09.018Z,4.33
2023-04-26T00:54:37.824Z,4.37
2023-04-26T00:57:07.204Z,5.20
2023-04-26T00:59:36.614Z,4.60
2023-04-26T01:02:05.340Z,5.50
2023-04-26T01:04:33.910Z,4.37
2023-04-26T01:07:04.543Z,4.90
2023-04-26T01:09:35.794Z,5.13
2023-04-26T01:12:04.134Z,5.63
2023-04-26T01:14:32.516Z,5.37
2023-04-26T01:17:01.627Z,4.97
2023-04-26T01:19:30.225Z,4.50
2023-04-26T01:21:58.979Z,5.10
2023-04-26T01:24:28.723Z,5.03
2023-04-26T01:26:57.156Z,4.80
2023-04-26T01:29:27.051Z,5.03
2023-04-26T01:31:55.799Z,5.27
2023-04-26T01:34:24.377Z,5.23
2023-04-26T01:36:53.153Z,4.90
2023-04-26T01:39:21.594Z,5.13
2023-04-26T01:41:53.561Z,4.73
2023-04-26T01:44:22.797Z,4.93
2023-04-26T01:46:54.657Z,5.63
2023-04-26T01:49:23.043Z,5.70
2023-04-26T01:51:51.779Z,6.03
2023-04-26T01:54:20.402Z,5.90
2023-04-26T01:56:48.814Z,5.83
2023-04-26T01:59:18.806Z,5.50
2023-04-26T02:01:50.225Z,5.73
2023-04-26T02:04:18.626Z,5.80
2023-04-26T02:06:46.974Z,6.23
2023-04-26T02:09:15.882Z,6.23
2023-04-26T02:11:44.365Z,6.10
2023-04-26T02:14:12.826Z,7.30
2023-04-26T02:16:43.497Z,6.30
2023-04-26T02:19:11.962Z,6.13
2023-04-26T02:21:57.208Z,6.10
2023-04-26T02:24:25.717Z,6.00
2023-04-26T02:26:54.533Z,6.70
2023-04-26T02:29:39.909Z,6.00
2023-04-26T02:32:12.978Z,6.63
2023-04-26T02:34:41.737Z,6.30
2023-04-26T02:37:13.702Z,6.40
2023-04-26T02:39:42.228Z,6.40
2023-04-26T02:42:12.033Z,6.47
2023-04-26T02:44:40.622Z,6.47
2023-04-26T02:47:09.972Z,6.07
2023-04-26T02:49:43.010Z,6.53
2023-04-26T02:52:11.403Z,6.77
2023-04-26T02:54:39.685Z,6.80
2023-04-26T02:57:09.607Z,6.50
2023-04-26T02:59:37.988Z,6.13
2023-04-26T03:02:06.513Z,6.30
2023-04-26T03:04:36.115Z,7.17
2023-04-26T03:07:06.022Z,6.50
2023-04-26T03:09:34.799Z,6.70
2023-04-26T03:12:03.377Z,7.17
2023-04-26T03:14:31.770Z,6.63
2023-04-26T03:17:00.219Z,7.53
2023-04-26T03:19:28.900Z,6.57
2023-04-26T03:21:57.337Z,7.40
2023-04-26T03:24:27.198Z,6.93
2023-04-26T03:26:55.567Z,6.70
2023-04-26T03:29:23.883Z,7.03
2023-04-26T03:31:52.348Z,7.20
2023-04-26T03:34:20.962Z,7.27
2023-04-26T03:36:49.371Z,7.60
2023-04-26T03:39:18.134Z,7.60
2023-04-26T03:41:48.003Z,7.40
2023-04-26T03:44:16.596Z,7.67
2023-04-26T03:46:45.069Z,7.60
2023-04-26T03:49:13.579Z,7.83
2023-04-26T03:51:42.218Z,7.57
2023-04-26T03:54:11.144Z,7.67
2023-04-26T03:56:40.190Z,7.43
2023-04-26T03:59:10.312Z,6.77
2023-04-26T04:01:39.011Z,7.90
2023-04-26T04:04:07.781Z,7.43
2023-04-26T04:06:36.506Z,7.53
2023-04-26T04:09:05.453Z,6.97
2023-04-26T04:11:34.677Z,7.63
2023-04-26T04:14:03.262Z,7.77
2023-04-26T04:16:33.096Z,6.83
2023-04-26T04:19:01.552Z,7.00
2023-04-26T04:21:30.032Z,6.97
2023-04-26T04:23:58.438Z,6.93
2023-04-26T04:26:28.024Z,7.17
2023-04-26T04:28:57.369Z,6.83
2023-04-26T04:31:25.987Z,7.17
2023-04-26T04:33:55.745Z,7.43
2023-04-26T04:36:24.322Z,6.70
2023-04-26T04:38:53.812Z,6.70
2023-04-26T04:41:23.739Z,6.67
2023-04-26T04:43:53.731Z,6.27
2023-04-26T04:46:22.316Z,6.63
2023-04-26T04:48:50.814Z,6.93
2023-04-26T04:51:21.226Z,7.07
2023-04-26T04:53:49.674Z,6.73
2023-04-26T04:56:18.567Z,6.50
2023-04-26T04:58:47.876Z,6.53
2023-04-26T05:01:16.245Z,7.27
2023-04-26T05:03:44.692Z,7.00
2023-04-26T05:06:13.131Z,6.97
2023-04-26T05:08:42.926Z,7.03
2023-04-26T05:11:11.299Z,6.80
2023-04-26T05:13:39.857Z,6.50
2023-04-26T05:16:08.397Z,6.17
2023-04-26T05:18:36.866Z,7.53
2023-04-26T05:21:05.313Z,6.90
2023-04-26T05:23:34.423Z,6.03
2023-04-26T05:26:06.075Z,6.40
2023-04-26T05:28:34.541Z,7.13
2023-04-26T05:31:04.178Z,7.07
2023-04-26T05:33:32.624Z,6.57
2023-04-26T05:36:01.713Z,6.07
2023-04-26T05:38:30.171Z,6.70
2023-04-26T05:40:58.783Z,5.57
2023-04-26T05:43:28.502Z,6.97
2023-04-26T05:45:57.352Z,6.47
2023-04-26T05:48:26.310Z,5.20
2023-04-26T05:50:54.752Z,5.43
2023-04-26T05:53:23.109Z,5.70
2023-04-26T05:55:51.878Z,5.00
2023-04-26T05:58:20.268Z,4.67
2023-04-26T06:00:50.031Z,4.57
2023-04-26T06:03:19.415Z,5.10
2023-04-26T06:05:48.015Z,4.30
2023-04-26T06:08:16.593Z,4.33
2023-04-26T06:10:44.896Z,4.90
2023-04-26T06:13:13.281Z,4.20
2023-04-26T06:15:41.735Z,3.43
2023-04-26T06:18:11.471Z,3.10
2023-04-26T06:20:39.941Z,2.80
2023-04-26T06:23:08.499Z,2.90
2023-04-26T06:25:37.507Z,2.90
2023-04-26T06:28:06.084Z,2.60
2023-04-26T06:30:34.470Z,2.13
2023-04-26T06:33:02.870Z,2.23
2023-04-26T06:35:32.631Z,2.17
2023-04-26T06:38:01.001Z,1.90
2023-04-26T06:40:29.383Z,1.80
2023-04-26T06:42:57.950Z,2.43
2023-04-26T06:45:26.316Z,1.50
2023-04-26T06:47:54.753Z,2.23
2023-04-26T06:50:23.313Z,1.90
2023-04-26T06:52:53.404Z,1.83
2023-04-26T06:55:21.831Z,1.93
2023-04-26T06:57:51.344Z,2.10
2023-04-26T07:00:19.820Z,1.80
2023-04-26T07:02:48.384Z,1.80
2023-04-26T07:05:17.404Z,1.57
2023-04-26T07:07:46.130Z,2.10
2023-04-26T07:10:16.303Z,1.60
2023-04-26T07:12:45.336Z,1.80
2023-04-26T07:15:13.783Z,1.73
2023-04-26T07:17:43.366Z,1.77
2023-04-26T07:20:12.196Z,1.50
2023-04-26T07:22:40.911Z,1.60
2023-04-26T07:25:09.548Z,1.83
2023-04-26T07:27:39.474Z,1.57
2023-04-26T07:30:08.624Z,1.80
2023-04-26T07:32:40.069Z,2.00
2023-04-26T07:35:10.532Z,2.00
2023-04-26T07:37:38.900Z,1.33
2023-04-26T07:40:09.105Z,1.77
2023-04-26T07:42:38.879Z,1.80
2023-04-26T07:45:08.551Z,1.80
2023-04-26T07:47:37.158Z,1.60
2023-04-26T07:50:06.132Z,2.10
2023-04-26T07:52:34.647Z,1.83
2023-04-26T07:55:03.387Z,1.60
2023-04-26T07:57:31.946Z,1.50
2023-04-26T08:00:01.884Z,1.97
2023-04-26T08:02:43.521Z,1.90
2023-04-26T08:05:13.318Z,1.77
2023-04-26T08:07:42.177Z,2.00
2023-04-26T08:10:14.077Z,2.10
2023-04-26T08:12:42.896Z,2.17
2023-04-26T08:15:14.008Z,1.90
2023-04-26T08:17:46.082Z,2.00
2023-04-26T08:20:14.895Z,1.70
2023-04-26T08:22:43.473Z,1.93
2023-04-26T08:25:12.071Z,1.77
2023-04-26T08:27:41.656Z,1.70
2023-04-26T08:30:10.599Z,1.53
2023-04-26T08:32:41.055Z,1.70
2023-04-26T08:35:10.753Z,1.60
2023-04-26T08:37:39.160Z,1.93
2023-04-26T08:40:10.148Z,1.97
2023-04-26T08:42:41.150Z,1.93
2023-04-26T08:45:11.530Z,2.00
2023-04-26T08:47:42.512Z,2.07
2023-04-26T08:50:15.018Z,1.70
2023-04-26T08:52:44.506Z,2.10
2023-04-26T08:55:14.584Z,2.77
2023-04-26T08:57:43.616Z,2.50
2023-04-26T09:00:13.650Z,2.17
2023-04-26T09:02:43.974Z,1.80
2023-04-26T09:05:13.051Z,1.93
2023-04-26T09:07:44.596Z,1.90
2023-04-26T09:10:13.491Z,2.20
2023-04-26T09:12:42.236Z,1.80
2023-04-26T09:15:11.550Z,1.90
2023-04-26T09:17:41.855Z,1.70
2023-04-26T09:20:22.064Z,2.10
2023-04-26T09:22:50.717Z,2.30
2023-04-26T09:25:19.974Z,3.10
2023-04-26T09:27:48.406Z,2.00
2023-04-26T09:30:18.252Z,1.80
2023-04-26T09:32:47.782Z,2.20
2023-04-26T09:35:28.484Z,1.93
2023-04-26T09:38:04.060Z,2.40
2023-04-26T09:40:35.052Z,1.90
2023-04-26T09:43:03.939Z,1.67
2023-04-26T09:45:32.758Z,1.80
2023-04-26T09:48:14.501Z,1.90
2023-04-26T09:50:44.516Z,2.03
2023-04-26T09:53:13.428Z,1.90
2023-04-26T09:55:41.864Z,1.80
2023-04-26T09:58:10.769Z,1.80
2023-04-26T10:00:39.824Z,2.17
2023-04-26T10:03:09.975Z,1.90
2023-04-26T10:05:39.477Z,1.87
2023-04-26T10:08:09.498Z,1.97
2023-04-26T10:10:37.894Z,1.60
2023-04-26T10:13:10.525Z,1.50
2023-04-26T10:15:39.052Z,1.80
2023-04-26T10:18:08.705Z,1.47
2023-04-26T10:20:38.245Z,1.70
2023-04-26T10:23:06.960Z,1.57
2023-04-26T10:25:40.263Z,1.80
2023-04-26T10:28:11.751Z,1.50
2023-04-26T10:30:55.134Z,1.60
2023-04-26T10:33:23.982Z,1.60
2023-04-26T10:36:09.314Z,1.67
2023-04-26T10:38:38.425Z,1.50
2023-04-26T10:41:41.200Z,1.40
2023-04-26T10:44:28.448Z,1.70
2023-04-26T10:46:58.326Z,1.80
2023-04-26T10:49:27.108Z,1.60
2023-04-26T10:52:12.447Z,1.80
2023-04-26T10:54:52.622Z,1.57
2023-04-26T10:57:21.697Z,1.57
2023-04-26T11:00:10.733Z,1.50
2023-04-26T11:02:52.712Z,1.80
2023-04-26T11:05:57.154Z,1.70
2023-04-26T11:08:30.526Z,1.83
2023-04-26T11:11:52.061Z,1.53
2023-04-26T11:14:23.536Z,1.87
2023-04-26T11:16:53.833Z,1.70
2023-04-26T11:19:43.935Z,1.80
2023-04-26T11:22:12.947Z,1.67
2023-04-26T11:24:42.642Z,1.40
2023-04-26T11:30:17.171Z,1.63
2023-04-26T11:32:57.569Z,1.87
2023-04-26T11:36:10.900Z,1.70
2023-04-26T11:38:48.878Z,1.77
2023-04-26T11:41:19.478Z,1.53
2023-04-26T11:44:07.384Z,1.80
2023-04-26T11:47:04.768Z,1.83
2023-04-26T11:49:33.677Z,1.63
2023-04-26T11:52:02.275Z,2.07
2023-04-26T11:54:32.756Z,1.60
2023-04-26T11:57:02.305Z,1.53
2023-04-26T13:16:57.935Z,1.57
2023-04-26T13:30:55.540Z,1.57
2023-04-26T13:33:48.425Z,1.63
2023-04-26T13:36:18.075Z,1.60
2023-04-26T13:38:46.618Z,1.30
2023-04-26T13:41:15.201Z,1.93
2023-04-26T13:43:43.590Z,1.63
2023-04-26T13:46:12.183Z,2.00
2023-04-26T13:48:41.127Z,1.53
2023-04-26T13:51:09.638Z,1.40
2023-04-26T13:53:39.812Z,1.30
2023-04-26T13:56:09.577Z,2.07
2023-04-26T13:58:38.184Z,1.77
2023-04-26T14:01:06.712Z,1.80
2023-04-26T14:03:35.844Z,1.70
2023-04-26T14:06:04.756Z,1.47
2023-04-26T14:08:33.189Z,1.77
2023-04-26T14:11:02.959Z,1.27
2023-04-26T14:13:31.340Z,1.63
2023-04-26T14:15:59.762Z,2.20
2023-04-26T14:18:28.265Z,1.70
2023-04-26T14:20:56.720Z,1.90
2023-04-26T14:23:25.121Z,1.43
2023-04-26T14:25:53.838Z,2.10
2023-04-26T14:28:24.079Z,2.13
2023-04-26T14:30:52.467Z,1.70
2023-04-26T14:33:22.073Z,1.90
2023-04-26T14:35:51.496Z,1.70
2023-04-26T14:38:19.927Z,1.93
2023-04-26T14:40:48.315Z,1.50
2023-04-26T14:43:18.319Z,1.63
2023-04-26T14:45:48.184Z,1.60
2023-04-26T14:48:17.059Z,2.30
2023-04-26T14:50:45.822Z,1.57
2023-04-26T14:53:14.393Z,1.80
2023-04-26T14:55:42.879Z,1.80
2023-04-26T14:58:11.221Z,1.80
2023-04-26T15:00:39.615Z,1.67
2023-04-26T15:03:09.643Z,1.90
2023-04-26T15:05:38.448Z,1.70
2023-04-26T15:08:07.116Z,1.77
2023-04-26T15:10:36.240Z,1.80
2023-04-26T15:13:05.041Z,1.80
2023-04-26T15:15:34.854Z,2.20
2023-04-26T15:18:03.659Z,2.00
2023-04-26T15:20:33.476Z,1.80
2023-04-26T15:23:01.899Z,1.93
2023-04-26T15:25:30.512Z,1.90
2023-04-26T15:27:59.071Z,1.80
2023-04-26T15:30:27.932Z,1.97
2023-04-26T15:32:56.662Z,2.20
2023-04-26T15:35:26.044Z,1.90
2023-04-26T15:37:56.237Z,1.80
2023-04-26T15:40:24.745Z,1.70
2023-04-26T15:42:53.316Z,2.00
2023-04-26T15:45:21.742Z,2.60
2023-04-26T15:47:50.252Z,2.03
2023-04-26T15:50:18.680Z,1.80
2023-04-26T15:52:47.862Z,2.20
2023-04-26T15:55:18.201Z,1.90
2023-04-26T15:57:46.671Z,2.10
2023-04-26T16:00:16.346Z,2.20
2023-04-26T16:02:45.237Z,2.30
2023-04-26T16:05:15.251Z,3.17
2023-04-26T16:07:44.280Z,3.17
2023-04-26T16:10:13.140Z,3.20
2023-04-26T16:12:44.517Z,2.00
2023-04-26T16:15:13.035Z,2.07
2023-04-26T16:17:41.785Z,2.10
2023-04-26T16:20:13.445Z,2.00
2023-04-26T16:22:42.313Z,2.10
2023-04-26T16:25:12.510Z,2.30
2023-04-26T16:27:41.194Z,2.23
2023-04-26T16:30:11.739Z,1.67
2023-04-26T16:32:40.324Z,2.03
2023-04-26T16:35:09.904Z,2.20
2023-04-26T16:37:42.458Z,1.90
2023-04-26T16:40:13.646Z,2.20
2023-04-26T16:42:44.572Z,1.97
2023-04-26T16:45:16.906Z,2.50
2023-04-26T16:47:45.452Z,2.83
2023-04-26T16:50:13.940Z,2.23
2023-04-26T16:52:42.682Z,1.90
2023-04-26T16:55:11.182Z,2.10
2023-04-26T16:57:39.774Z,2.23
2023-04-26T17:00:11.633Z,2.30
2023-04-26T17:02:42.172Z,1.97
2023-04-26T17:05:11.168Z,2.30
2023-04-26T17:07:39.724Z,2.27
2023-04-26T17:10:08.676Z,1.70
2023-04-26T17:12:37.248Z,3.00
2023-04-26T17:15:06.816Z,2.73
2023-04-26T17:17:35.444Z,2.20
2023-04-26T17:20:06.540Z,2.00
2023-04-26T17:22:35.016Z,2.20
2023-04-26T17:25:04.889Z,2.77
2023-04-26T17:27:33.475Z,2.37
2023-04-26T17:30:01.915Z,2.57
2023-04-26T17:32:30.518Z,2.50
2023-04-26T17:34:58.963Z,2.20
2023-04-26T17:37:28.809Z,2.10
2023-04-26T17:39:58.199Z,3.00
2023-04-26T17:42:28.722Z,2.70
2023-04-26T17:44:57.147Z,2.30
2023-04-26T17:47:25.566Z,1.90
2023-04-26T17:49:54.142Z,2.20
2023-04-26T17:52:23.033Z,2.50
2023-04-26T17:54:54.523Z,3.07
2023-04-26T17:57:23.944Z,2.47
2023-04-26T17:59:52.923Z,2.20
2023-04-26T18:02:21.548Z,2.40
2023-04-26T18:04:50.615Z,3.20
2023-04-26T18:07:19.529Z,2.47
2023-04-26T18:09:47.961Z,2.30
2023-04-26T18:12:17.821Z,2.00
2023-04-26T18:14:46.317Z,2.43
2023-04-26T18:17:16.181Z,2.17
2023-04-26T18:19:44.706Z,3.13
2023-04-26T18:22:15.479Z,2.13
2023-04-26T18:24:43.966Z,2.90
2023-04-26T18:27:14.033Z,2.70
2023-04-26T18:29:44.034Z,4.00
2023-04-26T18:32:12.622Z,2.50
2023-04-26T18:34:41.404Z,2.63
2023-04-26T18:37:10.226Z,2.50
2023-04-26T18:39:38.663Z,2.80
2023-04-26T18:42:07.324Z,3.20
2023-04-26T18:44:36.187Z,2.77
2023-04-26T18:47:06.238Z,2.83
2023-04-26T18:49:34.641Z,2.80
2023-04-26T18:52:03.659Z,3.03
2023-04-26T18:54:33.104Z,2.63
2023-04-26T18:57:03.303Z,2.50
2023-04-26T18:59:32.177Z,2.60
2023-04-26T19:02:01.644Z,2.23
2023-04-26T19:04:35.074Z,2.50
2023-04-26T19:07:03.893Z,2.40
2023-04-26T19:09:39.678Z,2.10
2023-04-26T19:12:15.309Z,2.17
2023-04-26T19:14:43.713Z,3.03
2023-04-26T19:17:12.329Z,3.40
2023-04-26T19:19:42.212Z,3.90
2023-04-26T19:22:11.037Z,2.50
2023-04-26T19:24:39.487Z,2.37
2023-04-26T19:27:07.988Z,2.23
2023-04-26T19:29:36.434Z,2.00
2023-04-26T19:32:07.107Z,2.30
2023-04-26T19:34:36.489Z,2.50
2023-04-26T19:37:07.178Z,2.40
2023-04-26T19:39:35.653Z,2.50
2023-04-26T19:42:04.170Z,2.50
2023-04-26T19:44:32.716Z,2.60
2023-04-26T19:47:01.240Z,2.40
2023-04-26T19:49:29.665Z,3.00
2023-04-26T19:51:58.083Z,2.80
2023-04-26T19:54:27.986Z,2.90
2023-04-26T19:56:56.395Z,3.10
2023-04-26T19:59:24.827Z,2.77
2023-04-26T20:01:53.849Z,3.17
2023-04-26T20:04:22.733Z,2.90
2023-04-26T20:06:51.263Z,3.37
2023-04-26T20:09:19.712Z,3.10
2023-04-26T20:11:49.832Z,3.60
2023-04-26T20:14:18.313Z,3.30
2023-04-26T20:16:46.888Z,3.10
2023-04-26T20:19:15.561Z,3.13
2023-04-26T20:21:44.026Z,3.37
2023-04-26T20:24:12.477Z,4.10
2023-04-26T20:26:40.933Z,3.90
2023-04-26T20:29:11.027Z,3.93
2023-04-26T20:31:40.161Z,4.10
2023-04-26T20:34:08.641Z,4.00
2023-04-26T20:36:37.117Z,4.50
2023-04-26T20:39:05.910Z,4.53
2023-04-26T20:41:34.742Z,5.40
2023-04-26T20:44:03.909Z,4.90
2023-04-26T20:46:35.313Z,5.37
2023-04-26T20:49:04.148Z,4.37
2023-04-26T20:51:33.133Z,5.20
2023-04-26T20:54:01.875Z,5.80
2023-04-26T20:56:30.313Z,5.30
2023-04-26T20:58:58.859Z,5.17
2023-04-26T21:01:27.899Z,4.27
2023-04-26T21:03:57.982Z,4.30
2023-04-26T21:06:27.186Z,4.50
2023-04-26T21:08:55.763Z,4.00
2023-04-26T21:11:24.311Z,4.20
2023-04-26T21:13:54.235Z,5.00
2023-04-26T21:16:22.823Z,5.50
2023-04-26T21:18:51.424Z,6.13
2023-04-26T21:21:21.300Z,5.53
2023-04-26T21:23:49.689Z,4.60
2023-04-26T21:26:18.107Z,4.47
2023-04-26T21:28:46.767Z,4.20
2023-04-26T21:31:15.266Z,4.47
2023-04-26T21:33:43.758Z,4.10
2023-04-26T21:36:12.493Z,4.60
2023-04-26T21:38:42.444Z,4.93
2023-04-26T21:41:11.006Z,4.80
2023-04-26T21:43:39.471Z,4.80
2023-04-26T21:46:08.239Z,4.80
2023-04-26T21:48:38.798Z,5.00
2023-04-26T21:51:07.315Z,4.70
2023-04-26T21:53:35.821Z,4.40
2023-04-26T21:56:06.704Z,5.00
2023-04-26T21:58:35.153Z,5.47
2023-04-26T22:01:10.097Z,5.00
2023-04-26T22:03:38.787Z,4.60
2023-04-26T22:06:07.617Z,4.60
2023-04-26T22:08:36.210Z,5.40
2023-04-26T22:11:06.167Z,5.27
2023-04-26T22:13:34.600Z,5.03
2023-04-26T22:16:03.193Z,5.10
2023-04-26T22:18:32.523Z,4.83
2023-04-26T22:21:01.101Z,5.07
2023-04-26T22:23:31.333Z,5.37
2023-04-26T22:26:00.690Z,5.40
2023-04-26T22:28:30.596Z,5.20
2023-04-26T22:30:58.965Z,5.23
2023-04-26T22:33:27.430Z,5.23
2023-04-26T22:35:58.083Z,6.10
2023-04-26T22:38:27.101Z,5.57
2023-04-26T22:40:56.312Z,5.63
2023-04-26T22:43:24.747Z,5.10
2023-04-26T22:45:54.559Z,4.77
2023-04-26T22:48:23.027Z,5.00
2023-04-26T22:50:51.518Z,4.57
2023-04-26T22:53:19.956Z,5.20
2023-04-26T22:55:48.383Z,4.77
2023-04-26T22:58:17.883Z,5.50
2023-04-26T23:00:46.473Z,4.80
2023-04-26T23:03:16.330Z,5.37
2023-04-26T23:05:45.628Z,5.30
2023-04-26T23:08:14.092Z,5.33
2023-04-26T23:10:42.532Z,5.47
2023-04-26T23:13:11.121Z,5.10
2023-04-26T23:15:39.667Z,5.13
2023-04-26T23:18:08.207Z,5.20
2023-04-26T23:20:38.010Z,6.33
2023-04-26T23:23:06.519Z,4.77
2023-04-26T23:25:35.012Z,4.93
2023-04-26T23:28:03.421Z,5.20
2023-04-26T23:30:31.794Z,4.90
2023-04-26T23:33:00.328Z,5.00
2023-04-26T23:35:28.786Z,5.33
2023-04-26T23:37:58.602Z,5.30
2023-04-26T23:40:27.017Z,5.20
2023-04-26T23:42:55.465Z,5.50
2023-04-26T23:45:23.948Z,5.27
2023-04-26T23:47:52.338Z,5.77
2023-04-26T23:50:20.984Z,5.40
2023-04-26T23:52:49.497Z,5.20
2023-04-26T23:55:19.715Z,5.63
2023-04-26T23:57:48.109Z,5.87
